sensor_id;sensor_type;location;lat;lon;timestamp;P1;durP1;ratioP1;P2;durP2;ratioP2
22525;SDS011;11429;50.842;4.386;2024-01-10T00:01:58;10.73;;;6.70;;
22525;SDS011;11429;50.842;4.386;2024-01-10T00:04:24;13.60;;;6.65;;
22525;SDS011;11429;50.842;4.386;2024-01-10T00:06:50;10.38;;;6.65;;
22525;SDS011;11429;50.842;4.386;2024-01-10T00:09:15;9.95;;;5.70;;
22525;SDS011;11429;50.842;4.386;2024-01-10T00:11:41;10.32;;;5.95;;
22525;SDS011;11429;50.842;4.386;2024-01-10T00:14:07;12.10;;;6.35;;
22525;SDS011;11429;50.842;4.386;2024-01-10T00:16:32;10.77;;;6.32;;
22525;SDS011;11429;50.842;4.386;2024-01-10T00:18:58;11.30;;;6.32;;
22525;SDS011;11429;50.842;4.386;2024-01-10T00:21:24;10.93;;;6.30;;
22525;SDS011;11429;50.842;4.386;2024-01-10T00:23:50;14.20;;;6.55;;
22525;SDS011;11429;50.842;4.386;2024-01-10T00:26:15;11.48;;;6.68;;
22525;SDS011;11429;50.842;4.386;2024-01-10T00:28:42;14.85;;;6.78;;
22525;SDS011;11429;50.842;4.386;2024-01-10T00:31:07;10.30;;;6.45;;
22525;SDS011;11429;50.842;4.386;2024-01-10T00:33:33;12.85;;;6.80;;
22525;SDS011;11429;50.842;4.386;2024-01-10T00:35:59;11.38;;;6.50;;
22525;SDS011;11429;50.842;4.386;2024-01-10T00:38:25;12.00;;;6.53;;
22525;SDS011;11429;50.842;4.386;2024-01-10T00:40:50;10.85;;;6.53;;
22525;SDS011;11429;50.842;4.386;2024-01-10T00:43:16;10.60;;;6.45;;
22525;SDS011;11429;50.842;4.386;2024-01-10T00:45:42;12.60;;;7.10;;
22525;SDS011;11429;50.842;4.386;2024-01-10T00:48:08;13.52;;;6.93;;
22525;SDS011;11429;50.842;4.386;2024-01-10T00:50:33;15.40;;;7.25;;
22525;SDS011;11429;50.842;4.386;2024-01-10T00:52:59;11.27;;;6.47;;
22525;SDS011;11429;50.842;4.386;2024-01-10T00:55:25;11.10;;;6.72;;
22525;SDS011;11429;50.842;4.386;2024-01-10T00:57:50;13.38;;;7.00;;
22525;SDS011;11429;50.842;4.386;2024-01-10T01:00:16;11.40;;;6.53;;
22525;SDS011;11429;50.842;4.386;2024-01-10T01:02:42;13.70;;;7.00;;
22525;SDS011;11429;50.842;4.386;2024-01-10T01:05:07;11.57;;;6.53;;
22525;SDS011;11429;50.842;4.386;2024-01-10T01:07:33;13.05;;;6.70;;
22525;SDS011;11429;50.842;4.386;2024-01-10T01:09:59;13.70;;;7.18;;
22525;SDS011;11429;50.842;4.386;2024-01-10T01:12:25;12.52;;;7.28;;
22525;SDS011;11429;50.842;4.386;2024-01-10T01:14:51;12.38;;;6.97;;
22525;SDS011;11429;50.842;4.386;2024-01-10T01:17:18;14.35;;;7.25;;
22525;SDS011;11429;50.842;4.386;2024-01-10T01:19:44;13.15;;;6.82;;
22525;SDS011;11429;50.842;4.386;2024-01-10T01:22:09;9.55;;;6.45;;
22525;SDS011;11429;50.842;4.386;2024-01-10T01:24:35;12.77;;;6.93;;
22525;SDS011;11429;50.842;4.386;2024-01-10T01:27:02;12.43;;;6.70;;
22525;SDS011;11429;50.842;4.386;2024-01-10T01:29:28;14.35;;;6.97;;
22525;SDS011;11429;50.842;4.386;2024-01-10T01:31:54;12.38;;;6.35;;
22525;SDS011;11429;50.842;4.386;2024-01-10T01:34:19;11.50;;;7.20;;
22525;SDS011;11429;50.842;4.386;2024-01-10T01:36:45;11.45;;;6.15;;
22525;SDS011;11429;50.842;4.386;2024-01-10T01:39:11;14.00;;;7.18;;
22525;SDS011;11429;50.842;4.386;2024-01-10T01:41:38;16.40;;;8.10;;
22525;SDS011;11429;50.842;4.386;2024-01-10T01:44:04;11.30;;;6.95;;
22525;SDS011;11429;50.842;4.386;2024-01-10T01:46:30;14.63;;;6.75;;
22525;SDS011;11429;50.842;4.386;2024-01-10T01:48:57;14.52;;;6.47;;
22525;SDS011;11429;50.842;4.386;2024-01-10T01:51:24;11.02;;;6.50;;
22525;SDS011;11429;50.842;4.386;2024-01-10T01:53:53;14.65;;;7.10;;
22525;SDS011;11429;50.842;4.386;2024-01-10T01:56:19;11.32;;;6.70;;
22525;SDS011;11429;50.842;4.386;2024-01-10T01:58:45;13.00;;;6.72;;
22525;SDS011;11429;50.842;4.386;2024-01-10T02:01:13;11.85;;;6.63;;
22525;SDS011;11429;50.842;4.386;2024-01-10T02:03:39;10.38;;;6.22;;
22525;SDS011;11429;50.842;4.386;2024-01-10T02:06:04;11.60;;;6.35;;
22525;SDS011;11429;50.842;4.386;2024-01-10T02:08:34;11.10;;;6.63;;
22525;SDS011;11429;50.842;4.386;2024-01-10T02:11:00;12.93;;;7.28;;
22525;SDS011;11429;50.842;4.386;2024-01-10T02:13:27;12.50;;;6.65;;
22525;SDS011;11429;50.842;4.386;2024-01-10T02:15:54;14.68;;;6.93;;
22525;SDS011;11429;50.842;4.386;2024-01-10T02:18:20;12.27;;;6.57;;
22525;SDS011;11429;50.842;4.386;2024-01-10T02:20:45;15.35;;;7.10;;
22525;SDS011;11429;50.842;4.386;2024-01-10T02:23:11;13.85;;;7.10;;
22525;SDS011;11429;50.842;4.386;2024-01-10T02:25:38;14.75;;;7.18;;
22525;SDS011;11429;50.842;4.386;2024-01-10T02:28:05;12.75;;;6.80;;
22525;SDS011;11429;50.842;4.386;2024-01-10T02:30:31;14.20;;;6.93;;
22525;SDS011;11429;50.842;4.386;2024-01-10T02:32:56;13.50;;;7.22;;
22525;SDS011;11429;50.842;4.386;2024-01-10T02:35:22;12.27;;;6.65;;
22525;SDS011;11429;50.842;4.386;2024-01-10T02:37:48;10.93;;;6.38;;
22525;SDS011;11429;50.842;4.386;2024-01-10T02:40:17;12.57;;;7.03;;
22525;SDS011;11429;50.842;4.386;2024-01-10T02:42:43;11.63;;;6.32;;
22525;SDS011;11429;50.842;4.386;2024-01-10T02:45:09;14.30;;;7.43;;
22525;SDS011;11429;50.842;4.386;2024-01-10T02:47:35;10.90;;;6.75;;
22525;SDS011;11429;50.842;4.386;2024-01-10T02:50:02;13.60;;;7.25;;
22525;SDS011;11429;50.842;4.386;2024-01-10T02:52:29;10.65;;;6.68;;
22525;SDS011;11429;50.842;4.386;2024-01-10T02:54:54;15.77;;;7.60;;
22525;SDS011;11429;50.842;4.386;2024-01-10T02:57:20;11.63;;;7.25;;
22525;SDS011;11429;50.842;4.386;2024-01-10T02:59:46;11.20;;;6.72;;
22525;SDS011;11429;50.842;4.386;2024-01-10T03:02:11;13.43;;;7.15;;
22525;SDS011;11429;50.842;4.386;2024-01-10T03:04:37;12.25;;;6.97;;
22525;SDS011;11429;50.842;4.386;2024-01-10T03:07:03;11.32;;;6.97;;
22525;SDS011;11429;50.842;4.386;2024-01-10T03:09:28;11.40;;;6.90;;
22525;SDS011;11429;50.842;4.386;2024-01-10T03:11:54;11.90;;;7.22;;
22525;SDS011;11429;50.842;4.386;2024-01-10T03:14:20;13.13;;;6.97;;
22525;SDS011;11429;50.842;4.386;2024-01-10T03:16:47;12.88;;;7.57;;
22525;SDS011;11429;50.842;4.386;2024-01-10T03:19:13;11.90;;;6.88;;
22525;SDS011;11429;50.842;4.386;2024-01-10T03:21:38;15.40;;;7.32;;
22525;SDS011;11429;50.842;4.386;2024-01-10T03:24:04;11.38;;;7.00;;
22525;SDS011;11429;50.842;4.386;2024-01-10T03:26:30;11.95;;;6.78;;
22525;SDS011;11429;50.842;4.386;2024-01-10T03:28:56;13.10;;;6.68;;
22525;SDS011;11429;50.842;4.386;2024-01-10T03:31:22;13.65;;;6.93;;
22525;SDS011;11429;50.842;4.386;2024-01-10T03:33:48;13.48;;;7.05;;
22525;SDS011;11429;50.842;4.386;2024-01-10T03:36:17;13.05;;;6.95;;
22525;SDS011;11429;50.842;4.386;2024-01-10T03:38:43;11.63;;;6.90;;
22525;SDS011;11429;50.842;4.386;2024-01-10T03:41:13;13.05;;;6.90;;
22525;SDS011;11429;50.842;4.386;2024-01-10T03:43:39;15.38;;;7.13;;
22525;SDS011;11429;50.842;4.386;2024-01-10T03:46:05;12.50;;;7.22;;
22525;SDS011;11429;50.842;4.386;2024-01-10T03:48:31;11.73;;;7.00;;
22525;SDS011;11429;50.842;4.386;2024-01-10T03:50:56;11.88;;;7.07;;
22525;SDS011;11429;50.842;4.386;2024-01-10T03:53:22;14.20;;;7.47;;
22525;SDS011;11429;50.842;4.386;2024-01-10T03:55:48;12.80;;;6.82;;
22525;SDS011;11429;50.842;4.386;2024-01-10T03:58:13;15.63;;;7.20;;
22525;SDS011;11429;50.842;4.386;2024-01-10T04:00:39;13.43;;;7.60;;
22525;SDS011;11429;50.842;4.386;2024-01-10T04:03:05;13.80;;;7.47;;
22525;SDS011;11429;50.842;4.386;2024-01-10T04:05:30;14.05;;;7.43;;
22525;SDS011;11429;50.842;4.386;2024-01-10T04:07:56;11.68;;;6.50;;
22525;SDS011;11429;50.842;4.386;2024-01-10T04:10:22;12.60;;;6.80;;
22525;SDS011;11429;50.842;4.386;2024-01-10T04:12:48;10.88;;;6.22;;
22525;SDS011;11429;50.842;4.386;2024-01-10T04:15:14;11.30;;;6.82;;
22525;SDS011;11429;50.842;4.386;2024-01-10T04:17:40;15.18;;;6.88;;
22525;SDS011;11429;50.842;4.386;2024-01-10T04:20:06;13.32;;;6.90;;
22525;SDS011;11429;50.842;4.386;2024-01-10T04:22:32;12.02;;;6.88;;
22525;SDS011;11429;50.842;4.386;2024-01-10T04:24:58;12.63;;;6.72;;
22525;SDS011;11429;50.842;4.386;2024-01-10T04:27:25;11.98;;;6.35;;
22525;SDS011;11429;50.842;4.386;2024-01-10T04:29:52;16.65;;;7.60;;
22525;SDS011;11429;50.842;4.386;2024-01-10T04:32:18;10.73;;;6.75;;
22525;SDS011;11429;50.842;4.386;2024-01-10T04:34:44;13.63;;;7.13;;
22525;SDS011;11429;50.842;4.386;2024-01-10T04:37:10;12.52;;;6.60;;
22525;SDS011;11429;50.842;4.386;2024-01-10T04:39:36;14.65;;;6.63;;
22525;SDS011;11429;50.842;4.386;2024-01-10T04:42:03;14.63;;;7.03;;
22525;SDS011;11429;50.842;4.386;2024-01-10T04:44:29;13.02;;;8.18;;
22525;SDS011;11429;50.842;4.386;2024-01-10T04:46:55;12.75;;;7.07;;
22525;SDS011;11429;50.842;4.386;2024-01-10T04:49:20;11.93;;;7.13;;
22525;SDS011;11429;50.842;4.386;2024-01-10T04:51:46;13.30;;;7.45;;
22525;SDS011;11429;50.842;4.386;2024-01-10T04:54:12;11.75;;;6.80;;
22525;SDS011;11429;50.842;4.386;2024-01-10T04:56:38;13.30;;;6.50;;
22525;SDS011;11429;50.842;4.386;2024-01-10T04:59:04;11.20;;;6.40;;
22525;SDS011;11429;50.842;4.386;2024-01-10T05:01:30;13.18;;;7.30;;
22525;SDS011;11429;50.842;4.386;2024-01-10T05:03:57;12.70;;;6.75;;
22525;SDS011;11429;50.842;4.386;2024-01-10T05:06:22;16.25;;;7.50;;
22525;SDS011;11429;50.842;4.386;2024-01-10T05:08:48;14.65;;;6.88;;
22525;SDS011;11429;50.842;4.386;2024-01-10T05:11:14;14.10;;;7.85;;
22525;SDS011;11429;50.842;4.386;2024-01-10T05:13:41;13.52;;;7.63;;
22525;SDS011;11429;50.842;4.386;2024-01-10T05:16:07;10.48;;;6.45;;
22525;SDS011;11429;50.842;4.386;2024-01-10T05:18:33;13.18;;;6.85;;
22525;SDS011;11429;50.842;4.386;2024-01-10T05:20:59;16.35;;;7.43;;
22525;SDS011;11429;50.842;4.386;2024-01-10T05:23:25;12.80;;;7.30;;
22525;SDS011;11429;50.842;4.386;2024-01-10T05:25:53;12.20;;;6.55;;
22525;SDS011;11429;50.842;4.386;2024-01-10T05:28:19;14.13;;;7.10;;
22525;SDS011;11429;50.842;4.386;2024-01-10T05:30:44;10.50;;;6.60;;
22525;SDS011;11429;50.842;4.386;2024-01-10T05:33:10;12.50;;;7.55;;
22525;SDS011;11429;50.842;4.386;2024-01-10T05:35:36;11.75;;;6.78;;
22525;SDS011;11429;50.842;4.386;2024-01-10T05:38:05;12.38;;;7.00;;
22525;SDS011;11429;50.842;4.386;2024-01-10T05:40:31;11.45;;;6.95;;
22525;SDS011;11429;50.842;4.386;2024-01-10T05:43:00;13.88;;;6.72;;
22525;SDS011;11429;50.842;4.386;2024-01-10T05:45:26;14.75;;;7.40;;
22525;SDS011;11429;50.842;4.386;2024-01-10T05:47:52;13.77;;;7.07;;
22525;SDS011;11429;50.842;4.386;2024-01-10T05:50:17;12.93;;;6.90;;
22525;SDS011;11429;50.842;4.386;2024-01-10T05:52:44;14.63;;;7.32;;
22525;SDS011;11429;50.842;4.386;2024-01-10T05:55:10;15.27;;;7.60;;
22525;SDS011;11429;50.842;4.386;2024-01-10T05:57:36;11.40;;;7.07;;
22525;SDS011;11429;50.842;4.386;2024-01-10T06:00:02;12.55;;;6.63;;
22525;SDS011;11429;50.842;4.386;2024-01-10T06:02:30;11.40;;;6.90;;
22525;SDS011;11429;50.842;4.386;2024-01-10T06:04:55;12.65;;;7.05;;
22525;SDS011;11429;50.842;4.386;2024-01-10T06:07:21;14.55;;;7.60;;
22525;SDS011;11429;50.842;4.386;2024-01-10T06:09:47;11.63;;;5.90;;
22525;SDS011;11429;50.842;4.386;2024-01-10T06:12:13;12.45;;;7.38;;
22525;SDS011;11429;50.842;4.386;2024-01-10T06:14:39;12.32;;;6.78;;
22525;SDS011;11429;50.842;4.386;2024-01-10T06:17:05;13.02;;;7.05;;
22525;SDS011;11429;50.842;4.386;2024-01-10T06:19:31;12.45;;;7.10;;
22525;SDS011;11429;50.842;4.386;2024-01-10T06:21:57;18.90;;;8.00;;
22525;SDS011;11429;50.842;4.386;2024-01-10T06:24:23;11.80;;;6.93;;
22525;SDS011;11429;50.842;4.386;2024-01-10T06:26:49;14.77;;;7.43;;
22525;SDS011;11429;50.842;4.386;2024-01-10T06:29:15;15.20;;;6.82;;
22525;SDS011;11429;50.842;4.386;2024-01-10T06:31:41;16.45;;;7.63;;
22525;SDS011;11429;50.842;4.386;2024-01-10T06:34:07;13.27;;;7.20;;
22525;SDS011;11429;50.842;4.386;2024-01-10T06:36:33;12.98;;;7.45;;
22525;SDS011;11429;50.842;4.386;2024-01-10T06:39:00;14.07;;;7.25;;
22525;SDS011;11429;50.842;4.386;2024-01-10T06:41:26;13.52;;;7.32;;
22525;SDS011;11429;50.842;4.386;2024-01-10T06:43:52;11.63;;;7.03;;
22525;SDS011;11429;50.842;4.386;2024-01-10T06:46:18;15.07;;;7.20;;
22525;SDS011;11429;50.842;4.386;2024-01-10T06:48:44;17.17;;;8.05;;
22525;SDS011;11429;50.842;4.386;2024-01-10T06:51:12;11.30;;;6.43;;
22525;SDS011;11429;50.842;4.386;2024-01-10T06:53:38;12.40;;;6.75;;
22525;SDS011;11429;50.842;4.386;2024-01-10T06:56:04;13.63;;;7.53;;
22525;SDS011;11429;50.842;4.386;2024-01-10T06:58:30;14.30;;;7.35;;
22525;SDS011;11429;50.842;4.386;2024-01-10T07:00:56;14.27;;;7.45;;
22525;SDS011;11429;50.842;4.386;2024-01-10T07:03:23;12.73;;;7.15;;
22525;SDS011;11429;50.842;4.386;2024-01-10T07:05:48;13.95;;;7.15;;
22525;SDS011;11429;50.842;4.386;2024-01-10T07:08:14;16.77;;;7.93;;
22525;SDS011;11429;50.842;4.386;2024-01-10T07:10:42;17.17;;;7.70;;
22525;SDS011;11429;50.842;4.386;2024-01-10T07:13:09;16.50;;;7.30;;
22525;SDS011;11429;50.842;4.386;2024-01-10T07:15:36;11.80;;;7.35;;
22525;SDS011;11429;50.842;4.386;2024-01-10T07:18:03;12.20;;;7.05;;
22525;SDS011;11429;50.842;4.386;2024-01-10T07:20:29;14.20;;;7.70;;
22525;SDS011;11429;50.842;4.386;2024-01-10T07:22:55;14.20;;;7.10;;
22525;SDS011;11429;50.842;4.386;2024-01-10T07:25:21;12.60;;;7.00;;
22525;SDS011;11429;50.842;4.386;2024-01-10T07:27:50;13.63;;;7.20;;
22525;SDS011;11429;50.842;4.386;2024-01-10T07:30:19;15.20;;;7.85;;
22525;SDS011;11429;50.842;4.386;2024-01-10T07:32:45;14.77;;;6.85;;
22525;SDS011;11429;50.842;4.386;2024-01-10T07:35:12;12.25;;;6.47;;
22525;SDS011;11429;50.842;4.386;2024-01-10T07:37:41;12.90;;;7.50;;
22525;SDS011;11429;50.842;4.386;2024-01-10T07:40:10;12.93;;;7.20;;
22525;SDS011;11429;50.842;4.386;2024-01-10T07:42:36;14.02;;;6.97;;
22525;SDS011;11429;50.842;4.386;2024-01-10T07:45:02;11.50;;;7.30;;
22525;SDS011;11429;50.842;4.386;2024-01-10T07:47:32;12.20;;;7.53;;
22525;SDS011;11429;50.842;4.386;2024-01-10T07:50:08;14.52;;;8.10;;
22525;SDS011;11429;50.842;4.386;2024-01-10T07:52:35;13.82;;;7.28;;
22525;SDS011;11429;50.842;4.386;2024-01-10T07:55:02;17.42;;;7.80;;
22525;SDS011;11429;50.842;4.386;2024-01-10T07:57:31;11.13;;;6.75;;
22525;SDS011;11429;50.842;4.386;2024-01-10T07:59:59;14.93;;;7.40;;
22525;SDS011;11429;50.842;4.386;2024-01-10T08:02:25;17.85;;;7.55;;
22525;SDS011;11429;50.842;4.386;2024-01-10T08:04:51;11.38;;;7.30;;
22525;SDS011;11429;50.842;4.386;2024-01-10T08:07:17;19.27;;;7.63;;
22525;SDS011;11429;50.842;4.386;2024-01-10T08:09:44;12.57;;;7.35;;
22525;SDS011;11429;50.842;4.386;2024-01-10T08:12:10;13.93;;;7.57;;
22525;SDS011;11429;50.842;4.386;2024-01-10T08:14:37;18.10;;;7.57;;
22525;SDS011;11429;50.842;4.386;2024-01-10T08:17:03;10.48;;;6.85;;
22525;SDS011;11429;50.842;4.386;2024-01-10T08:19:29;13.02;;;6.97;;
22525;SDS011;11429;50.842;4.386;2024-01-10T08:21:54;13.73;;;7.45;;
22525;SDS011;11429;50.842;4.386;2024-01-10T08:24:21;14.27;;;7.25;;
22525;SDS011;11429;50.842;4.386;2024-01-10T08:26:47;17.38;;;7.53;;
22525;SDS011;11429;50.842;4.386;2024-01-10T08:29:20;13.45;;;7.32;;
22525;SDS011;11429;50.842;4.386;2024-01-10T08:31:46;15.18;;;7.60;;
22525;SDS011;11429;50.842;4.386;2024-01-10T08:34:13;13.55;;;7.82;;
22525;SDS011;11429;50.842;4.386;2024-01-10T08:36:39;14.40;;;7.55;;
22525;SDS011;11429;50.842;4.386;2024-01-10T08:39:05;12.90;;;7.45;;
22525;SDS011;11429;50.842;4.386;2024-01-10T08:41:31;12.63;;;7.50;;
22525;SDS011;11429;50.842;4.386;2024-01-10T08:43:58;13.27;;;7.00;;
22525;SDS011;11429;50.842;4.386;2024-01-10T08:46:25;13.23;;;7.03;;
22525;SDS011;11429;50.842;4.386;2024-01-10T08:48:50;13.15;;;7.53;;
22525;SDS011;11429;50.842;4.386;2024-01-10T08:51:16;20.00;;;8.48;;
22525;SDS011;11429;50.842;4.386;2024-01-10T08:53:45;13.43;;;7.47;;
22525;SDS011;11429;50.842;4.386;2024-01-10T08:56:11;13.80;;;8.20;;
22525;SDS011;11429;50.842;4.386;2024-01-10T08:58:37;16.95;;;8.15;;
22525;SDS011;11429;50.842;4.386;2024-01-10T09:01:03;14.00;;;7.80;;
22525;SDS011;11429;50.842;4.386;2024-01-10T09:03:33;13.05;;;7.82;;
22525;SDS011;11429;50.842;4.386;2024-01-10T09:05:59;15.35;;;8.13;;
22525;SDS011;11429;50.842;4.386;2024-01-10T09:08:25;17.98;;;8.73;;
22525;SDS011;11429;50.842;4.386;2024-01-10T09:10:50;14.02;;;7.53;;
22525;SDS011;11429;50.842;4.386;2024-01-10T09:13:16;13.70;;;7.60;;
22525;SDS011;11429;50.842;4.386;2024-01-10T09:15:42;12.10;;;7.53;;
22525;SDS011;11429;50.842;4.386;2024-01-10T09:18:08;13.45;;;7.93;;
22525;SDS011;11429;50.842;4.386;2024-01-10T09:20:34;11.77;;;7.53;;
22525;SDS011;11429;50.842;4.386;2024-01-10T09:23:01;15.40;;;8.32;;
22525;SDS011;11429;50.842;4.386;2024-01-10T09:25:27;14.35;;;8.30;;
22525;SDS011;11429;50.842;4.386;2024-01-10T09:27:53;17.15;;;8.50;;
22525;SDS011;11429;50.842;4.386;2024-01-10T09:30:19;14.25;;;7.93;;
22525;SDS011;11429;50.842;4.386;2024-01-10T09:32:45;16.25;;;8.45;;
22525;SDS011;11429;50.842;4.386;2024-01-10T09:35:12;16.73;;;8.68;;
22525;SDS011;11429;50.842;4.386;2024-01-10T09:37:38;12.73;;;8.20;;
22525;SDS011;11429;50.842;4.386;2024-01-10T09:40:04;14.85;;;7.80;;
22525;SDS011;11429;50.842;4.386;2024-01-10T09:42:32;13.07;;;8.00;;
22525;SDS011;11429;50.842;4.386;2024-01-10T09:45:00;15.02;;;8.88;;
22525;SDS011;11429;50.842;4.386;2024-01-10T09:47:28;15.20;;;8.60;;
22525;SDS011;11429;50.842;4.386;2024-01-10T09:49:56;15.20;;;8.52;;
22525;SDS011;11429;50.842;4.386;2024-01-10T09:52:27;16.20;;;8.65;;
22525;SDS011;11429;50.842;4.386;2024-01-10T09:54:53;17.65;;;8.80;;
22525;SDS011;11429;50.842;4.386;2024-01-10T09:57:24;15.23;;;8.40;;
22525;SDS011;11429;50.842;4.386;2024-01-10T09:59:51;16.00;;;8.60;;
22525;SDS011;11429;50.842;4.386;2024-01-10T10:02:17;14.88;;;8.73;;
22525;SDS011;11429;50.842;4.386;2024-01-10T10:04:58;14.25;;;8.30;;
22525;SDS011;11429;50.842;4.386;2024-01-10T10:07:53;14.52;;;8.20;;
22525;SDS011;11429;50.842;4.386;2024-01-10T10:10:19;15.65;;;8.65;;
22525;SDS011;11429;50.842;4.386;2024-01-10T10:12:46;16.50;;;8.57;;
22525;SDS011;11429;50.842;4.386;2024-01-10T10:15:13;15.02;;;8.60;;
22525;SDS011;11429;50.842;4.386;2024-01-10T10:17:40;13.65;;;8.88;;
22525;SDS011;11429;50.842;4.386;2024-01-10T10:25:27;14.98;;;9.43;;
22525;SDS011;11429;50.842;4.386;2024-01-10T10:28:01;13.50;;;7.05;;
22525;SDS011;11429;50.842;4.386;2024-01-10T10:30:28;15.10;;;8.68;;
22525;SDS011;11429;50.842;4.386;2024-01-10T10:32:55;16.58;;;9.95;;
22525;SDS011;11429;50.842;4.386;2024-01-10T10:35:21;14.23;;;8.60;;
22525;SDS011;11429;50.842;4.386;2024-01-10T10:37:51;15.82;;;9.07;;
22525;SDS011;11429;50.842;4.386;2024-01-10T10:40:18;13.63;;;8.43;;
22525;SDS011;11429;50.842;4.386;2024-01-10T10:42:44;19.55;;;10.23;;
22525;SDS011;11429;50.842;4.386;2024-01-10T10:45:16;13.57;;;8.50;;
22525;SDS011;11429;50.842;4.386;2024-01-10T10:47:43;15.90;;;9.63;;
22525;SDS011;11429;50.842;4.386;2024-01-10T10:50:21;14.55;;;8.90;;
22525;SDS011;11429;50.842;4.386;2024-01-10T10:52:49;19.02;;;9.55;;
22525;SDS011;11429;50.842;4.386;2024-01-10T10:55:16;16.02;;;9.32;;
22525;SDS011;11429;50.842;4.386;2024-01-10T10:57:47;18.83;;;9.57;;
22525;SDS011;11429;50.842;4.386;2024-01-10T11:00:18;16.00;;;9.45;;
22525;SDS011;11429;50.842;4.386;2024-01-10T11:02:45;15.25;;;9.30;;
22525;SDS011;11429;50.842;4.386;2024-01-10T11:05:11;16.90;;;9.50;;
22525;SDS011;11429;50.842;4.386;2024-01-10T11:07:38;17.17;;;10.95;;
22525;SDS011;11429;50.842;4.386;2024-01-10T11:10:08;16.13;;;9.73;;
22525;SDS011;11429;50.842;4.386;2024-01-10T11:23:55;14.35;;;8.88;;
22525;SDS011;11429;50.842;4.386;2024-01-10T11:26:23;16.70;;;9.10;;
22525;SDS011;11429;50.842;4.386;2024-01-10T11:28:50;15.57;;;9.50;;
22525;SDS011;11429;50.842;4.386;2024-01-10T11:31:16;16.58;;;9.75;;
22525;SDS011;11429;50.842;4.386;2024-01-10T11:33:57;15.93;;;10.05;;
22525;SDS011;11429;50.842;4.386;2024-01-10T11:36:23;15.48;;;9.25;;
22525;SDS011;11429;50.842;4.386;2024-01-10T11:41:22;15.35;;;9.75;;
22525;SDS011;11429;50.842;4.386;2024-01-10T11:46:44;16.77;;;9.75;;
22525;SDS011;11429;50.842;4.386;2024-01-10T11:49:16;19.63;;;9.75;;
22525;SDS011;11429;50.842;4.386;2024-01-10T11:51:43;15.02;;;10.00;;
22525;SDS011;11429;50.842;4.386;2024-01-10T11:54:10;15.75;;;9.32;;
22525;SDS011;11429;50.842;4.386;2024-01-10T11:56:39;15.70;;;9.75;;
22525;SDS011;11429;50.842;4.386;2024-01-10T11:59:07;19.23;;;9.63;;
22525;SDS011;11429;50.842;4.386;2024-01-10T12:01:36;17.77;;;9.73;;
22525;SDS011;11429;50.842;4.386;2024-01-10T12:04:03;16.30;;;9.45;;
22525;SDS011;11429;50.842;4.386;2024-01-10T12:06:30;18.50;;;10.20;;
22525;SDS011;11429;50.842;4.386;2024-01-10T12:08:57;15.60;;;9.93;;
22525;SDS011;11429;50.842;4.386;2024-01-10T12:11:24;15.43;;;9.73;;
22525;SDS011;11429;50.842;4.386;2024-01-10T12:13:50;17.10;;;10.48;;
22525;SDS011;11429;50.842;4.386;2024-01-10T12:16:16;22.90;;;9.93;;
22525;SDS011;11429;50.842;4.386;2024-01-10T12:18:43;19.45;;;9.95;;
22525;SDS011;11429;50.842;4.386;2024-01-10T12:21:09;19.42;;;11.25;;
22525;SDS011;11429;50.842;4.386;2024-01-10T12:23:38;15.75;;;9.52;;
22525;SDS011;11429;50.842;4.386;2024-01-10T12:26:05;17.60;;;10.30;;
22525;SDS011;11429;50.842;4.386;2024-01-10T12:28:34;14.48;;;9.55;;
22525;SDS011;11429;50.842;4.386;2024-01-10T12:31:03;17.17;;;10.23;;
22525;SDS011;11429;50.842;4.386;2024-01-10T12:33:30;18.05;;;10.07;;
22525;SDS011;11429;50.842;4.386;2024-01-10T12:36:09;18.10;;;9.95;;
22525;SDS011;11429;50.842;4.386;2024-01-10T12:38:36;18.90;;;10.75;;
22525;SDS011;11429;50.842;4.386;2024-01-10T12:41:05;15.25;;;9.73;;
22525;SDS011;11429;50.842;4.386;2024-01-10T12:43:33;18.52;;;10.75;;
22525;SDS011;11429;50.842;4.386;2024-01-10T12:48:39;20.70;;;11.35;;
22525;SDS011;11429;50.842;4.386;2024-01-10T12:51:10;16.33;;;9.60;;
22525;SDS011;11429;50.842;4.386;2024-01-10T12:53:37;17.83;;;10.35;;
22525;SDS011;11429;50.842;4.386;2024-01-10T12:56:07;21.23;;;10.93;;
22525;SDS011;11429;50.842;4.386;2024-01-10T12:58:35;17.13;;;10.68;;
22525;SDS011;11429;50.842;4.386;2024-01-10T13:01:02;17.67;;;10.23;;
22525;SDS011;11429;50.842;4.386;2024-01-10T13:03:28;18.45;;;10.38;;
22525;SDS011;11429;50.842;4.386;2024-01-10T13:05:54;16.70;;;10.52;;
22525;SDS011;11429;50.842;4.386;2024-01-10T13:08:20;21.50;;;11.15;;
22525;SDS011;11429;50.842;4.386;2024-01-10T13:10:46;17.63;;;10.43;;
22525;SDS011;11429;50.842;4.386;2024-01-10T13:13:13;17.50;;;9.90;;
22525;SDS011;11429;50.842;4.386;2024-01-10T13:15:39;15.85;;;9.82;;
22525;SDS011;11429;50.842;4.386;2024-01-10T13:18:06;30.63;;;10.80;;
22525;SDS011;11429;50.842;4.386;2024-01-10T13:20:32;18.05;;;10.68;;
22525;SDS011;11429;50.842;4.386;2024-01-10T13:22:57;20.55;;;10.35;;
22525;SDS011;11429;50.842;4.386;2024-01-10T13:25:23;20.45;;;12.20;;
22525;SDS011;11429;50.842;4.386;2024-01-10T13:27:52;18.27;;;10.38;;
22525;SDS011;11429;50.842;4.386;2024-01-10T13:30:18;19.27;;;11.00;;
22525;SDS011;11429;50.842;4.386;2024-01-10T13:32:45;19.85;;;11.23;;
22525;SDS011;11429;50.842;4.386;2024-01-10T13:35:12;20.45;;;11.38;;
22525;SDS011;11429;50.842;4.386;2024-01-10T13:37:39;18.02;;;11.18;;
22525;SDS011;11429;50.842;4.386;2024-01-10T13:40:06;16.88;;;10.75;;
22525;SDS011;11429;50.842;4.386;2024-01-10T13:42:33;16.17;;;10.73;;
22525;SDS011;11429;50.842;4.386;2024-01-10T13:44:58;20.95;;;10.25;;
22525;SDS011;11429;50.842;4.386;2024-01-10T13:47:24;18.67;;;10.55;;
22525;SDS011;11429;50.842;4.386;2024-01-10T13:49:50;18.58;;;10.40;;
22525;SDS011;11429;50.842;4.386;2024-01-10T13:52:16;20.58;;;10.10;;
22525;SDS011;11429;50.842;4.386;2024-01-10T13:54:42;17.52;;;10.27;;
22525;SDS011;11429;50.842;4.386;2024-01-10T13:57:10;18.08;;;10.35;;
22525;SDS011;11429;50.842;4.386;2024-01-10T13:59:36;22.20;;;10.50;;
22525;SDS011;11429;50.842;4.386;2024-01-10T14:02:01;20.10;;;10.57;;
22525;SDS011;11429;50.842;4.386;2024-01-10T14:04:28;19.95;;;11.10;;
22525;SDS011;11429;50.842;4.386;2024-01-10T14:06:53;17.55;;;10.13;;
22525;SDS011;11429;50.842;4.386;2024-01-10T14:09:19;20.80;;;11.00;;
22525;SDS011;11429;50.842;4.386;2024-01-10T14:11:45;17.23;;;9.90;;
22525;SDS011;11429;50.842;4.386;2024-01-10T14:14:11;20.92;;;11.18;;
22525;SDS011;11429;50.842;4.386;2024-01-10T14:16:37;18.48;;;10.68;;
22525;SDS011;11429;50.842;4.386;2024-01-10T14:19:03;19.33;;;10.88;;
22525;SDS011;11429;50.842;4.386;2024-01-10T14:21:29;20.83;;;11.40;;
22525;SDS011;11429;50.842;4.386;2024-01-10T14:23:57;20.95;;;11.13;;
22525;SDS011;11429;50.842;4.386;2024-01-10T14:26:23;18.05;;;10.27;;
22525;SDS011;11429;50.842;4.386;2024-01-10T14:28:51;21.25;;;11.15;;
22525;SDS011;11429;50.842;4.386;2024-01-10T14:31:20;18.30;;;10.40;;
22525;SDS011;11429;50.842;4.386;2024-01-10T14:33:46;19.00;;;11.43;;
22525;SDS011;11429;50.842;4.386;2024-01-10T14:36:12;19.63;;;10.80;;
22525;SDS011;11429;50.842;4.386;2024-01-10T14:38:38;19.65;;;11.48;;
22525;SDS011;11429;50.842;4.386;2024-01-10T14:41:04;21.40;;;11.00;;
22525;SDS011;11429;50.842;4.386;2024-01-10T14:43:32;17.75;;;10.75;;
22525;SDS011;11429;50.842;4.386;2024-01-10T14:45:58;20.52;;;10.98;;
22525;SDS011;11429;50.842;4.386;2024-01-10T14:48:23;23.75;;;10.75;;
22525;SDS011;11429;50.842;4.386;2024-01-10T14:50:49;21.50;;;11.27;;
22525;SDS011;11429;50.842;4.386;2024-01-10T14:53:16;18.33;;;11.13;;
22525;SDS011;11429;50.842;4.386;2024-01-10T14:55:41;19.65;;;10.63;;